Time;durP1;ratioP1;P1;durP2;ratioP2;P2;SDS_P1;SDS_P2;PMS_P1;PMS_P2;Temp;Humidity;BMP_temperature;BMP_pressure;BME280_temperature;BME280_humidity;BME280_pressure;Samples;Min_cycle;Max_cycle;Signal;HPM_P1;HPM_P2
2024/01/21 00:00:15;;;;;;;;;;;;;;;28.64;74.31;101188.63;5041056;28;66122;-41
2024/01/21 00:02:46;;;;;;;12.32;5.13;;;;;;;28.78;72.80;101185.00;5055890;28;70603;-42
2024/01/21 00:05:17;;;;;;;10.45;6.18;;;;;;;28.75;73.50;101179.97;5042040;28;66656;-42
2024/01/21 00:07:48;;;;;;;9.98;4.95;;;;;;;28.84;73.44;101202.28;5033390;28;70172;-41
2024/01/21 00:10:20;;;;;;;16.92;5.68;;;;;;;28.68;73.96;101169.16;5040563;28;65859;-42
2024/01/21 00:12:51;;;;;;;13.97;6.27;;;;;;;28.88;73.21;101198.13;5077446;28;69501;-43
2024/01/21 00:15:22;;;;;;;15.98;5.63;;;;;;;28.90;74.25;101212.28;5060894;28;66212;-41
2024/01/21 00:17:53;;;;;;;14.48;6.07;;;;;;;28.93;74.81;101204.59;5061581;28;69731;-41
2024/01/21 00:20:24;;;;;;;16.65;5.43;;;;;;;28.98;74.81;101216.69;5061886;28;65359;-41
2024/01/21 00:22:54;;;;;;;26.15;6.43;;;;;;;29.01;74.95;101221.69;5061903;28;70174;-40
2024/01/21 00:25:25;;;;;;;21.67;6.53;;;;;;;29.02;75.83;101220.66;5047929;28;65892;-42
2024/01/21 00:27:57;;;;;;;14.23;6.43;;;;;;;29.07;76.42;101231.72;5061056;28;69937;-42
2024/01/21 00:30:27;;;;;;;15.68;6.25;;;;;;;29.06;76.00;101235.44;5044348;28;66633;-41
2024/01/21 00:32:58;;;;;;;18.88;6.88;;;;;;;29.12;76.17;101240.91;5059171;28;70024;-40
2024/01/21 00:35:29;;;;;;;12.57;7.43;;;;;;;29.13;76.63;101249.81;5042345;28;66992;-39
2024/01/21 00:38:00;;;;;;;10.15;6.10;;;;;;;29.05;72.54;101233.78;5045389;28;69698;-41
2024/01/21 00:40:31;;;;;;;16.52;5.80;;;;;;;29.07;72.77;101262.25;5043396;28;66522;-40
2024/01/21 00:43:02;;;;;;;6.53;5.70;;;;;;;29.05;72.66;101260.78;5044785;28;70128;-40
2024/01/21 00:45:32;;;;;;;9.48;6.10;;;;;;;29.02;72.65;101258.44;5067062;28;66621;-40
2024/01/21 00:48:03;;;;;;;6.32;5.47;;;;;;;29.06;72.27;101267.84;5048999;28;70080;-39
2024/01/21 00:50:34;;;;;;;7.13;5.97;;;;;;;29.03;72.55;101257.41;5048499;28;66339;-39
2024/01/21 00:53:05;;;;;;;6.45;5.85;;;;;;;29.12;72.51;101272.47;5027340;28;69873;-39
2024/01/21 00:55:36;;;;;;;6.78;5.47;;;;;;;29.13;72.65;101274.13;5042470;28;66634;-39
2024/01/21 00:58:06;;;;;;;8.65;5.85;;;;;;;29.16;72.06;101284.53;5033436;28;69689;-39
2024/01/21 01:00:37;;;;;;;9.05;6.13;;;;;;;29.16;72.38;101287.25;5051205;28;65735;-39
2024/01/21 01:03:08;;;;;;;6.70;5.75;;;;;;;29.18;72.55;101287.88;5044956;28;70698;-39
2024/01/21 01:05:39;;;;;;;13.20;8.27;;;;;;;29.34;75.53;101294.84;5037988;28;65901;-38
2024/01/21 01:08:09;;;;;;;11.23;8.05;;;;;;;29.34;75.77;101301.06;5048816;28;70485;-40
2024/01/21 01:10:40;;;;;;;11.27;7.60;;;;;;;29.34;75.80;101298.38;5042139;28;66329;-40
2024/01/21 01:13:11;;;;;;;14.00;8.57;;;;;;;29.31;75.73;101293.38;5041198;28;70953;-40
2024/01/21 01:15:41;;;;;;;13.40;8.80;;;;;;;29.33;75.48;101301.25;5043710;28;65752;-39
2024/01/21 01:18:14;;;;;;;12.63;8.68;;;;;;;29.29;75.75;101290.03;5051362;28;70072;-39
2024/01/21 01:20:45;;;;;;;22.17;9.38;;;;;;;29.30;76.38;101302.50;5049535;28;66125;-40
2024/01/21 01:23:16;;;;;;;15.43;9.33;;;;;;;29.32;74.87;101311.25;5055768;28;70027;-40
2024/01/21 01:25:47;;;;;;;24.10;9.02;;;;;;;29.32;76.55;101305.00;5057051;28;66608;-41
2024/01/21 01:28:18;;;;;;;15.02;9.50;;;;;;;29.32;76.25;101305.84;5040844;28;70066;-40
2024/01/21 01:30:49;;;;;;;14.88;9.05;;;;;;;29.29;75.75;101298.13;5052636;28;66567;-40
2024/01/21 01:33:20;;;;;;;20.50;10.55;;;;;;;29.18;76.52;101282.47;5041645;28;70917;-40
2024/01/21 01:35:51;;;;;;;15.82;9.73;;;;;;;29.31;76.98;101301.47;5042759;28;66121;-41
2024/01/21 01:38:22;;;;;;;10.82;8.55;;;;;;;29.33;74.35;101307.50;5041941;28;69949;-40
2024/01/21 01:40:53;;;;;;;11.98;8.40;;;;;;;29.27;73.83;101308.28;5040769;28;65652;-41
2024/01/21 01:43:24;;;;;;;12.35;8.30;;;;;;;29.27;73.44;101313.69;5042151;28;68993;-41
2024/01/21 01:45:55;;;;;;;10.18;8.85;;;;;;;29.30;73.45;101313.28;5040411;28;65874;-41
2024/01/21 01:48:26;;;;;;;13.60;9.10;;;;;;;29.32;73.76;101318.50;5040099;28;69036;-41
2024/01/21 01:51:00;;;;;;;10.05;9.05;;;;;;;28.93;73.68;101253.22;5043545;28;65997;-41
2024/01/21 01:53:33;;;;;;;13.02;9.95;;;;;;;28.86;73.60;101236.16;5043272;28;70127;-41
2024/01/21 01:56:05;;;;;;;12.32;9.32;;;;;;;29.39;73.27;101322.94;5042469;28;66919;-42
2024/01/21 01:58:38;;;;;;;13.65;9.73;;;;;;;28.70;73.08;101204.06;5041783;28;69627;-41
2024/01/21 02:01:09;;;;;;;10.70;9.43;;;;;;;29.42;73.14;101323.53;5040855;28;66103;-41
2024/01/21 02:03:41;;;;;;;11.40;9.93;;;;;;;29.42;73.11;101326.25;5042191;28;70219;-41
2024/01/21 02:06:12;;;;;;;11.90;9.30;;;;;;;29.46;73.28;101327.53;5041674;28;65330;-42
2024/01/21 02:08:44;;;;;;;11.27;9.43;;;;;;;29.47;73.27;101329.19;5034908;28;68961;-41
2024/01/21 02:11:15;;;;;;;11.20;9.65;;;;;;;29.48;72.99;101330.88;5032391;28;66316;-40
2024/01/21 02:13:46;;;;;;;11.57;9.90;;;;;;;29.51;73.46;101327.78;5036994;28;70483;-41
2024/01/21 02:16:16;;;;;;;10.80;9.65;;;;;;;29.53;72.95;101328.38;5039110;28;65237;-42
2024/01/21 02:18:49;;;;;;;12.43;10.30;;;;;;;29.52;72.95;101321.31;5039038;28;69847;-42
2024/01/21 02:21:20;;;;;;;14.10;9.90;;;;;;;29.56;73.04;101322.56;5050292;28;66832;-41
2024/01/21 02:23:51;;;;;;;10.77;9.35;;;;;;;29.22;73.05;101264.81;5050328;28;70545;-41
2024/01/21 02:26:22;;;;;;;10.95;9.98;;;;;;;29.59;73.02;101327.59;5053447;28;65987;-41
2024/01/21 02:28:54;;;;;;;11.38;10.20;;;;;;;29.59;73.46;101322.19;5042377;28;70137;-42
2024/01/21 02:31:25;;;;;;;11.02;10.02;;;;;;;29.53;73.07;101312.16;5056074;28;65772;-42
2024/01/21 02:33:55;;;;;;;11.18;10.15;;;;;;;29.61;73.04;101320.97;5058466;28;70380;-41
2024/01/21 02:36:26;;;;;;;12.60;11.00;;;;;;;29.65;72.92;101316.00;5034145;28;66730;-41
2024/01/21 02:38:57;;;;;;;12.45;10.13;;;;;;;29.67;72.84;101323.91;5037246;28;70329;-42
2024/01/21 02:41:27;;;;;;;14.13;11.07;;;;;;;29.60;72.99;101307.63;5033970;28;65512;-40
2024/01/21 02:44:00;;;;;;;12.38;10.88;;;;;;;29.58;72.83;101297.00;5027191;28;69530;-40
2024/01/21 02:46:30;;;;;;;12.82;11.43;;;;;;;29.73;73.41;101315.00;5031867;28;66245;-40
2024/01/21 02:49:02;;;;;;;11.50;10.48;;;;;;;29.74;72.88;101309.38;5037993;28;69543;-43
2024/01/21 02:51:33;;;;;;;12.93;10.52;;;;;;;29.76;73.45;101317.31;5036697;28;66091;-42
2024/01/21 02:54:04;;;;;;;13.45;10.07;;;;;;;29.78;73.09;101315.22;5036791;28;70904;-41
2024/01/21 02:56:35;;;;;;;12.88;10.27;;;;;;;29.78;72.93;101310.66;5037552;28;65271;-42
2024/01/21 02:59:06;;;;;;;13.32;11.40;;;;;;;29.74;72.90;101298.56;5060319;28;69395;-41
2024/01/21 03:01:37;;;;;;;13.73;12.23;;;;;;;29.84;73.27;101304.44;5041519;28;65829;-41
2024/01/21 03:04:14;;;;;;;12.93;11.75;;;;;;;29.88;72.81;101304.84;5051333;28;70427;-42
2024/01/21 03:06:44;;;;;;;14.27;12.32;;;;;;;29.90;72.94;101293.84;5049901;28;65627;-41
2024/01/21 03:09:15;;;;;;;16.65;12.35;;;;;;;29.79;72.60;101276.34;5051673;28;70394;-41
2024/01/21 03:11:46;;;;;;;13.68;11.48;;;;;;;29.93;72.58;101290.72;5062716;28;65423;-41
2024/01/21 03:14:17;;;;;;;14.73;11.50;;;;;;;29.90;72.59;101285.72;5039825;28;68953;-41
2024/01/21 03:16:48;;;;;;;15.73;12.18;;;;;;;29.97;73.15;101287.38;5053597;28;65542;-41
2024/01/21 03:19:19;;;;;;;12.43;10.73;;;;;;;29.90;72.70;101274.91;5060280;28;71476;-42
2024/01/21 03:21:49;;;;;;;13.20;11.07;;;;;;;30.02;72.54;101287.63;5053737;28;66164;-42
2024/01/21 03:24:20;;;;;;;13.32;11.48;;;;;;;30.01;72.62;101282.44;5050656;28;70633;-41
2024/01/21 03:26:57;;;;;;;12.45;11.20;;;;;;;30.10;73.00;101291.19;5050447;28;43015;-41
2024/01/21 03:29:28;;;;;;;12.63;10.40;;;;;;;30.08;72.80;101282.44;5055973;28;70255;-41
2024/01/21 03:31:58;;;;;;;12.73;11.63;;;;;;;30.15;72.80;101284.13;5051345;28;65196;-41
2024/01/21 03:34:29;;;;;;;14.55;11.98;;;;;;;30.16;72.36;101285.78;5061761;28;69970;-41
2024/01/21 03:37:00;;;;;;;14.98;12.30;;;;;;;30.17;72.88;101276.63;5050183;28;65886;-41
2024/01/21 03:39:31;;;;;;;14.45;12.63;;;;;;;30.21;72.35;101280.56;5042978;28;69975;-42
2024/01/21 03:42:01;;;;;;;13.65;11.38;;;;;;;30.20;72.26;101264.53;5043030;28;66659;-42
2024/01/21 03:44:32;;;;;;;13.85;12.35;;;;;;;30.25;72.84;101273.72;5025810;28;69987;-44
2024/01/21 03:47:03;;;;;;;14.35;12.88;;;;;;;30.28;72.62;101267.94;5043862;28;66705;-42
2024/01/21 03:49:34;;;;;;;13.43;11.38;;;;;;;30.31;72.41;101268.53;5058471;28;69925;-43
2024/01/21 03:52:05;;;;;;;13.10;11.90;;;;;;;30.35;72.17;101265.22;5044157;28;65829;-43
2024/01/21 03:54:36;;;;;;;16.63;11.93;;;;;;;30.35;72.70;101262.50;5036375;28;69604;-42
2024/01/21 03:57:07;;;;;;;14.70;13.00;;;;;;;30.41;72.67;101260.84;5049742;28;66060;-41
2024/01/21 03:59:40;;;;;;;14.23;12.13;;;;;;;30.43;72.52;101256.88;5062972;28;70195;-42
2024/01/21 04:02:10;;;;;;;14.07;12.60;;;;;;;30.44;72.39;101250.44;5061058;28;66354;-42
2024/01/21 04:04:44;;;;;;;17.08;12.05;;;;;;;30.40;72.17;101237.53;5062729;28;69583;-42
2024/01/21 04:07:15;;;;;;;13.60;12.32;;;;;;;30.42;72.25;101238.13;5061317;28;66201;-42
2024/01/21 04:09:45;;;;;;;13.02;11.88;;;;;;;30.55;72.21;101242.72;5056057;28;70420;-42
2024/01/21 04:12:17;;;;;;;11.70;10.67;;;;;;;30.55;72.37;101242.72;5037627;28;66618;-41
2024/01/21 04:14:48;;;;;;;14.40;12.87;;;;;;;30.26;72.16;101190.69;5042366;28;70303;-41
2024/01/21 04:17:20;;;;;;;20.27;14.40;;;;;;;30.59;71.62;101244.81;5039947;28;65913;-40
2024/01/21 04:19:54;;;;;;;24.02;14.60;;;;;;;30.46;69.52;101237.53;5044205;28;69269;-41
2024/01/21 04:22:24;;;;;;;20.67;14.35;;;;;;;30.36;67.12;101222.75;5062235;28;65717;-42
2024/01/21 04:24:55;;;;;;;24.75;16.27;;;;;;;30.27;65.68;101224.81;5058969;28;70512;-42
2024/01/21 04:27:26;;;;;;;22.23;15.65;;;;;;;30.25;66.94;101219.59;5051559;28;66616;-42
2024/01/21 04:29:57;;;;;;;24.60;13.68;;;;;;;30.11;65.09;101207.09;5056271;28;70569;-41
2024/01/21 04:32:28;;;;;;;21.20;14.82;;;;;;;30.00;60.32;101215.81;5042082;28;65488;-42
2024/01/21 04:34:59;;;;;;;20.73;14.00;;;;;;;29.91;58.19;101206.25;5059751;28;70546;-42
2024/01/21 04:37:29;;;;;;;15.57;13.85;;;;;;;29.83;58.68;101201.84;5047270;28;65403;-41
2024/01/21 04:40:00;;;;;;;19.60;13.98;;;;;;;29.89;62.02;101198.31;5034256;28;70279;-41
2024/01/21 04:42:31;;;;;;;20.25;14.35;;;;;;;29.72;58.63;101176.25;5040481;28;66982;-42
2024/01/21 04:45:02;;;;;;;20.17;14.05;;;;;;;29.72;56.65;101176.25;5037153;28;69649;-42
2024/01/21 04:47:35;;;;;;;24.38;13.73;;;;;;;29.64;61.03;101157.53;5048171;28;65488;-41
2024/01/21 04:50:06;;;;;;;24.25;15.70;;;;;;;29.79;61.59;101168.16;5035135;28;70549;-41
2024/01/21 04:52:37;;;;;;;27.40;14.63;;;;;;;29.67;60.18;101157.13;5060028;28;65505;-41
2024/01/21 04:55:08;;;;;;;22.15;14.70;;;;;;;29.67;57.34;101156.28;5061912;28;69349;-42
2024/01/21 04:57:39;;;;;;;18.33;14.13;;;;;;;29.58;58.89;101136.69;5060814;28;66811;-42
2024/01/21 05:00:10;;;;;;;24.17;13.43;;;;;;;29.63;58.84;101139.66;5061007;28;69393;-41
2024/01/21 05:02:42;;;;;;;19.92;13.93;;;;;;;29.58;59.20;101142.09;5059862;28;66318;-40
2024/01/21 05:05:12;;;;;;;19.77;14.35;;;;;;;29.57;59.33;101129.63;5061044;28;70688;-41
2024/01/21 05:07:43;;;;;;;18.33;13.25;;;;;;;29.56;58.45;101128.81;5059839;28;65538;-42
2024/01/21 05:10:14;;;;;;;21.00;14.18;;;;;;;29.47;55.64;101123.78;5060727;28;70878;-43
2024/01/21 05:12:45;;;;;;;23.55;13.80;;;;;;;29.45;53.95;101118.59;5059699;28;66598;-42
2024/01/21 05:15:16;;;;;;;20.63;12.98;;;;;;;29.33;54.50;101102.13;5044847;28;70744;-41
2024/01/21 05:17:47;;;;;;;18.30;13.45;;;;;;;29.44;56.03;101116.09;5040312;28;66507;-41
2024/01/21 05:20:17;;;;;;;18.25;12.52;;;;;;;29.43;57.76;101103.63;5054151;28;69680;-43
2024/01/21 05:22:50;;;;;;;23.73;14.20;;;;;;;29.34;54.11;101098.41;5060053;28;66140;-41
2024/01/21 05:25:21;;;;;;;15.98;13.20;;;;;;;29.24;55.04;101073.63;5060803;28;70646;-41
2024/01/21 05:27:51;;;;;;;14.55;12.68;;;;;;;29.22;55.54;101066.78;5060891;28;66826;-41
2024/01/21 05:30:23;;;;;;;17.40;13.25;;;;;;;29.27;54.58;101070.53;5028375;28;70458;-42
2024/01/21 05:32:54;;;;;;;21.15;12.90;;;;;;;29.37;57.04;101073.69;5042597;28;66445;-41
2024/01/21 05:35:25;;;;;;;14.35;12.75;;;;;;;29.42;54.82;101069.50;5053789;28;70453;-42
2024/01/21 05:37:55;;;;;;;31.30;13.43;;;;;;;29.30;54.61;101053.91;5054563;28;65276;-41
2024/01/21 05:40:27;;;;;;;14.57;12.80;;;;;;;29.33;54.17;101048.09;5044195;28;70977;-41
2024/01/21 05:42:58;;;;;;;19.10;12.73;;;;;;;29.36;54.88;101055.81;5043732;28;66600;-41
2024/01/21 05:45:29;;;;;;;19.83;12.98;;;;;;;29.23;56.10;101009.84;5050091;28;69691;-42
2024/01/21 05:48:00;;;;;;;20.98;14.20;;;;;;;29.32;55.46;101024.81;5044206;28;65968;-42
2024/01/21 05:50:31;;;;;;;25.15;15.23;;;;;;;29.45;56.76;101034.81;5023586;28;70290;-43
2024/01/21 05:53:05;;;;;;;23.30;15.95;;;;;;;29.41;56.93;101044.34;5056000;28;66316;-42
2024/01/21 05:55:36;;;;;;;25.13;15.07;;;;;;;29.43;56.13;101031.47;5040668;28;69716;-41
2024/01/21 05:58:06;;;;;;;22.50;15.57;;;;;;;29.43;55.42;101027.94;5057127;28;66024;-42
2024/01/21 06:00:37;;;;;;;28.23;16.08;;;;;;;29.40;55.94;101026.50;5060344;28;70540;-42
2024/01/21 06:03:08;;;;;;;26.58;15.27;;;;;;;29.48;57.25;101022.75;5045518;28;66378;-40
2024/01/21 06:05:39;;;;;;;19.67;14.93;;;;;;;29.40;55.09;101011.09;5048452;28;70065;-42
2024/01/21 06:08:10;;;;;;;26.80;14.88;;;;;;;29.48;55.41;101020.06;5053864;28;66415;-41
2024/01/21 06:10:41;;;;;;;20.08;14.52;;;;;;;29.49;55.14;101010.91;5051490;28;70515;-43
2024/01/21 06:13:12;;;;;;;32.30;15.67;;;;;;;29.53;55.89;101004.03;5035323;28;65654;-43
2024/01/21 06:15:43;;;;;;;36.33;16.15;;;;;;;29.60;56.52;101000.28;5075103;28;69560;-44
2024/01/21 06:18:14;;;;;;;26.50;15.00;;;;;;;29.56;56.58;100981.97;5059516;28;66211;-43
2024/01/21 06:20:45;;;;;;;29.00;16.70;;;;;;;29.61;55.05;100990.28;5060758;28;71134;-42
2024/01/21 06:23:16;;;;;;;29.83;16.02;;;;;;;29.62;55.51;100981.16;5077353;28;66292;-43
2024/01/21 06:25:46;;;;;;;26.30;15.68;;;;;;;29.64;55.18;100979.09;5051531;28;69366;-42
2024/01/21 06:28:17;;;;;;;29.58;15.15;;;;;;;29.63;54.79;100972.03;5054028;28;66232;-44
2024/01/21 06:30:49;;;;;;;33.80;15.65;;;;;;;29.58;54.39;100964.50;5060001;28;69523;-42
2024/01/21 06:33:20;;;;;;;32.58;14.85;;;;;;;29.58;54.27;100959.09;5058004;28;66621;-41
2024/01/21 06:35:51;;;;;;;39.28;15.15;;;;;;;29.50;53.51;100955.78;5043688;28;70440;-43
2024/01/21 06:38:22;;;;;;;26.92;14.40;;;;;;;29.49;53.95;100954.97;5060330;28;65472;-42
2024/01/21 06:40:53;;;;;;;37.40;15.02;;;;;;;29.45;53.07;100952.88;5025043;28;70386;-43
2024/01/21 06:43:25;;;;;;;32.20;15.18;;;;;;;29.36;53.18;100944.16;5023007;28;66191;-42
2024/01/21 06:45:56;;;;;;;20.98;14.77;;;;;;;29.32;52.80;100941.06;5045312;28;69187;-41
2024/01/21 06:48:26;;;;;;;31.85;15.82;;;;;;;29.26;53.35;100931.09;5045630;28;66088;-42
2024/01/21 06:50:58;;;;;;;26.83;15.43;;;;;;;29.21;52.05;100930.88;5045569;28;69890;-42
2024/01/21 06:53:28;;;;;;;24.38;15.35;;;;;;;29.22;52.31;100932.53;5044903;28;66397;-42
2024/01/21 06:56:04;;;;;;;35.15;15.57;;;;;;;29.14;52.11;100930.03;5045100;28;70496;-41
2024/01/21 06:58:35;;;;;;;29.55;15.25;;;;;;;29.04;52.64;100908.03;5059446;28;66828;-41
2024/01/21 07:01:06;;;;;;;19.05;14.38;;;;;;;29.10;52.19;100924.22;5045809;28;69740;-42
2024/01/21 07:03:38;;;;;;;24.67;14.88;;;;;;;29.07;51.79;100919.22;5024639;28;66125;-42
2024/01/21 07:06:09;;;;;;;21.58;14.52;;;;;;;29.06;52.25;100916.72;5031158;28;69890;-42
2024/01/21 07:08:40;;;;;;;27.77;15.32;;;;;;;28.99;51.51;100910.47;5056597;28;66750;-42
2024/01/21 07:11:11;;;;;;;19.77;15.35;;;;;;;28.95;51.44;100905.50;5071609;28;69869;-42
2024/01/21 07:13:41;;;;;;;35.10;16.55;;;;;;;28.95;52.16;100894.69;5057798;28;65985;-43
2024/01/21 07:16:12;;;;;;;20.55;15.25;;;;;;;28.83;52.26;100872.03;5063287;28;70535;-43
2024/01/21 07:18:43;;;;;;;26.52;16.27;;;;;;;28.98;52.58;100903.41;5060315;28;65438;-45
2024/01/21 07:21:14;;;;;;;23.48;15.55;;;;;;;28.94;53.17;100898.41;5044696;28;71415;-42
2024/01/21 07:23:47;;;;;;;25.55;16.30;;;;;;;28.97;53.59;100907.97;5044031;28;67153;-42
2024/01/21 07:26:19;;;;;;;24.38;16.42;;;;;;;28.85;53.35;100882.63;5026693;28;69157;-42
2024/01/21 07:28:49;;;;;;;23.50;16.50;;;;;;;28.94;52.82;100901.09;5051249;28;65186;-42
2024/01/21 07:31:21;;;;;;;23.98;16.48;;;;;;;28.89;52.09;100890.13;5061021;28;70458;-42
2024/01/21 07:33:52;;;;;;;23.17;16.27;;;;;;;28.89;51.75;100895.53;5039495;28;65853;-41
2024/01/21 07:36:23;;;;;;;18.92;15.93;;;;;;;28.89;52.43;100903.63;5043456;28;70162;-42
2024/01/21 07:38:54;;;;;;;24.25;17.00;;;;;;;28.87;52.23;100897.59;5050319;28;65012;-42
2024/01/21 07:41:25;;;;;;;28.43;18.60;;;;;;;28.85;52.07;100894.25;5056841;28;69834;-42
2024/01/21 07:43:57;;;;;;;24.17;15.93;;;;;;;28.85;52.70;100894.25;5057453;28;66692;-42
2024/01/21 07:46:27;;;;;;;27.17;18.30;;;;;;;28.83;52.29;100904.41;5043759;28;70651;-42
2024/01/21 07:48:58;;;;;;;30.83;17.35;;;;;;;28.82;52.97;100889.28;5051057;28;66322;-40
2024/01/21 07:51:29;;;;;;;24.17;16.58;;;;;;;28.93;54.91;100885.97;5060679;28;71283;-40
2024/01/21 07:54:00;;;;;;;18.33;16.40;;;;;;;29.07;54.97;100891.41;5053215;28;67461;-38
2024/01/21 07:56:31;;;;;;;25.48;15.70;;;;;;;29.13;55.56;100871.66;5059419;28;68830;-39
2024/01/21 07:59:02;;;;;;;16.45;14.85;;;;;;;29.31;55.55;100881.81;5048737;28;65357;-40
2024/01/21 08:01:33;;;;;;;20.75;15.88;;;;;;;29.39;55.51;100874.34;5030263;28;70027;-40
2024/01/21 08:04:05;;;;;;;18.70;15.02;;;;;;;29.47;56.03;100864.31;5045148;28;66412;-42
2024/01/21 08:06:36;;;;;;;26.23;16.02;;;;;;;29.66;56.07;100879.69;5049114;28;69839;-41
2024/01/21 08:09:08;;;;;;;22.02;17.52;;;;;;;29.76;56.08;100884.69;5043281;28;66146;-41
2024/01/21 08:11:39;;;;;;;26.90;18.75;;;;;;;29.82;56.88;100890.06;5041886;28;70450;-40
2024/01/21 08:14:09;;;;;;;25.77;16.58;;;;;;;29.82;57.29;100890.06;5049874;28;65544;-41
2024/01/21 08:16:40;;;;;;;30.05;17.20;;;;;;;29.83;58.00;100886.28;5055427;28;71132;-42
2024/01/21 08:19:12;;;;;;;33.67;18.17;;;;;;;29.92;57.98;100891.47;5048388;28;66232;-39
2024/01/21 08:21:43;;;;;;;36.13;16.27;;;;;;;29.97;58.69;100892.50;5063193;28;70450;-41
2024/01/21 08:24:14;;;;;;;38.93;18.23;;;;;;;30.05;59.82;100894.97;5058596;28;66417;-40
2024/01/21 08:26:45;;;;;;;40.42;17.02;;;;;;;30.07;60.37;100892.06;5045565;28;71294;-40
2024/01/21 08:29:16;;;;;;;35.80;16.48;;;;;;;30.14;60.66;100900.94;5049798;28;66425;-40
2024/01/21 08:31:48;;;;;;;58.05;16.92;;;;;;;30.12;60.80;100878.72;5043122;28;70259;-39
2024/01/21 08:34:18;;;;;;;49.67;15.52;;;;;;;30.25;61.32;100884.06;5041895;28;66085;-39
2024/01/21 08:36:52;;;;;;;41.80;18.02;;;;;;;30.35;63.09;100894.44;5042790;28;70552;-42
2024/01/21 08:39:24;;;;;;;44.10;16.73;;;;;;;30.42;65.39;100897.09;5042101;28;65413;-44
2024/01/21 08:41:55;;;;;;;41.53;15.83;;;;;;;30.44;66.75;100897.72;5044638;28;69502;-40
2024/01/21 08:44:25;;;;;;;35.13;15.68;;;;;;;30.55;66.85;100894.31;5062003;28;66199;-39
2024/01/21 08:46:57;;;;;;;34.65;17.10;;;;;;;30.54;66.49;100884.56;5048539;28;70634;-40
2024/01/21 08:49:28;;;;;;;28.90;15.20;;;;;;;30.67;68.22;100892.59;5042292;28;65360;-39
2024/01/21 08:51:59;;;;;;;28.13;14.27;;;;;;;30.75;69.36;100899.59;5058847;28;70055;-38
2024/01/21 08:54:30;;;;;;;26.75;13.88;;;;;;;30.82;69.63;100899.59;5042287;28;65049;-39
2024/01/21 08:57:01;;;;;;;29.80;13.65;;;;;;;30.89;68.80;100887.66;5043258;28;70032;-40
2024/01/21 08:59:35;;;;;;;26.05;12.60;;;;;;;30.94;69.11;100903.25;5041688;28;66844;-38
2024/01/21 09:02:06;;;;;;;24.08;12.00;;;;;;;30.90;68.99;100891.22;5041584;28;70586;-38
2024/01/21 09:04:43;;;;;;;24.90;12.40;;;;;;;31.05;69.28;100904.41;5041637;28;65144;-39
2024/01/21 09:07:14;;;;;;;28.42;12.85;;;;;;;31.07;69.04;100897.72;5043566;28;69758;-39
2024/01/21 09:09:45;;;;;;;28.42;12.43;;;;;;;31.12;68.63;100906.03;5043637;28;65907;-38
2024/01/21 09:12:16;;;;;;;20.70;12.43;;;;;;;31.15;67.97;100907.47;5052332;28;70221;-39
2024/01/21 09:14:47;;;;;;;19.65;11.85;;;;;;;31.15;67.87;100913.72;5034063;28;65951;-40
2024/01/21 09:17:18;;;;;;;20.80;11.60;;;;;;;31.15;67.42;100908.28;5042806;28;70573;-42
2024/01/21 09:19:48;;;;;;;26.05;10.77;;;;;;;31.16;67.13;100915.34;5042521;28;66473;-40
2024/01/21 09:22:20;;;;;;;17.15;10.10;;;;;;;31.06;66.33;100906.88;5041976;28;70412;-47
2024/01/21 09:24:51;;;;;;;29.40;10.73;;;;;;;31.19;65.74;100914.09;5043046;28;66861;-39
2024/01/21 09:27:23;;;;;;;15.70;10.95;;;;;;;30.92;65.77;100867.41;5041362;28;69387;-42
2024/01/21 09:29:54;;;;;;;;;;;;;;;31.08;65.84;100910.22;5040690;28;65852;-40
2024/01/21 09:32:26;;;;;;;15.40;10.68;;;;;;;31.20;64.73;100912.19;5049180;28;69923;-41
2024/01/21 09:34:56;;;;;;;;;;;;;;;31.09;65.08;100911.91;5051222;28;65857;-39
2024/01/21 09:37:27;;;;;;;36.97;23.70;;;;;;;31.25;64.54;100910.47;5040199;28;70146;-38
2024/01/21 09:39:58;;;;;;;34.90;19.13;;;;;;;31.30;64.26;100917.97;5048159;28;67808;-39
2024/01/21 09:42:29;;;;;;;33.15;17.02;;;;;;;31.31;64.19;100922.31;5045300;28;70692;-41
2024/01/21 09:45:00;;;;;;;38.65;21.38;;;;;;;31.32;63.96;100926.72;5056052;28;66283;-39
2024/01/21 09:47:31;;;;;;;41.25;21.63;;;;;;;31.31;63.71;100919.59;5046013;28;70063;-41
2024/01/21 09:50:02;;;;;;;26.77;14.13;;;;;;;31.35;63.25;100931.69;5040193;28;66473;-40
2024/01/21 09:52:33;;;;;;;24.70;10.53;;;;;;;31.27;62.80;100913.00;5054998;28;70678;-39
2024/01/21 09:55:04;;;;;;;12.65;10.70;;;;;;;31.36;62.72;100927.94;5056367;28;66153;-41
2024/01/21 09:57:36;;;;;;;13.25;8.00;;;;;;;31.34;62.70;100932.72;5046670;28;70383;-40
2024/01/21 10:00:07;;;;;;;11.30;7.38;;;;;;;31.37;62.19;100935.00;5071466;28;65353;-40
2024/01/21 10:02:43;;;;;;;22.10;7.68;;;;;;;31.38;62.52;100937.50;5037431;28;70106;-41
2024/01/21 10:05:13;;;;;;;20.35;6.15;;;;;;;31.50;62.52;100939.50;5052673;28;66119;-40
2024/01/21 10:07:45;;;;;;;10.45;5.97;;;;;;;31.54;62.54;100938.81;5049077;28;69336;-40
2024/01/21 10:10:16;;;;;;;8.50;5.57;;;;;;;31.53;62.80;100937.16;5053407;28;67192;-41
2024/01/21 10:12:48;;;;;;;6.85;5.95;;;;;;;31.58;62.48;100931.88;5055115;28;69237;-40
2024/01/21 10:15:18;;;;;;;6.95;5.40;;;;;;;31.63;62.71;100933.13;5052541;28;66593;-43
2024/01/21 10:17:51;;;;;;;13.27;5.65;;;;;;;31.64;62.44;100940.19;5055187;28;70452;-41
2024/01/21 10:20:23;;;;;;;7.57;6.35;;;;;;;31.25;62.25;100883.38;5049533;28;67088;-39
2024/01/21 10:23:09;;;;;;;6.72;5.43;;;;;;;31.60;62.47;100951.50;5048717;28;70084;-41
2024/01/21 10:25:44;;;;;;;6.63;4.88;;;;;;;31.67;62.17;100956.84;5055657;28;66561;-42
2024/01/21 10:28:16;;;;;;;11.40;4.90;;;;;;;31.69;62.28;100953.91;5039575;28;70926;-41
2024/01/21 10:30:47;;;;;;;24.90;5.00;;;;;;;31.69;62.51;100954.72;5046723;28;65114;-41
2024/01/21 10:33:18;;;;;;;8.95;5.20;;;;;;;31.69;62.27;100959.34;5043860;28;69532;-42
2024/01/21 10:35:51;;;;;;;5.70;4.80;;;;;;;31.69;62.05;100954.72;5042016;28;65400;-42
2024/01/21 10:38:27;;;;;;;7.13;5.35;;;;;;;31.66;61.94;100943.50;5041412;28;69888;-47
2024/01/21 10:41:00;;;;;;;6.43;4.70;;;;;;;31.70;62.20;100950.94;5042874;28;65183;-42
2024/01/21 10:43:34;;;;;;;6.57;4.65;;;;;;;31.66;62.41;100954.34;5028998;28;69530;-42
2024/01/21 10:46:06;;;;;;;130.60;10.32;;;;;;;31.65;63.41;100958.97;5053098;28;65304;-38
2024/01/21 10:48:38;;;;;;;51.65;8.18;;;;;;;31.18;63.56;100890.75;5058584;28;70035;-38
2024/01/21 10:51:10;;;;;;;50.53;5.60;;;;;;;31.50;63.87;100951.16;5056455;28;66593;-40
2024/01/21 10:53:42;;;;;;;24.83;4.85;;;;;;;31.44;64.45;100967.50;5057608;28;70125;-40
2024/01/21 10:56:15;;;;;;;14.80;4.40;;;;;;;31.40;64.74;100958.97;5034160;28;66417;-43
2024/01/21 10:58:49;;;;;;;27.83;4.28;;;;;;;30.99;64.80;100895.28;5054792;28;70272;-42
2024/01/21 11:01:24;;;;;;;15.90;4.82;;;;;;;31.36;65.87;100968.59;5048456;28;66911;-42
2024/01/21 11:04:08;;;;;;;13.88;3.90;;;;;;;31.28;66.03;100968.84;5039468;28;70066;-46
2024/01/21 11:06:51;;;;;;;15.55;4.05;;;;;;;31.30;66.59;100972.16;5058328;28;66839;-40
2024/01/21 11:09:28;;;;;;;11.93;4.57;;;;;;;31.16;66.55;100953.28;5037319;28;70414;-40
2024/01/21 11:11:59;;;;;;;12.98;5.10;;;;;;;31.27;67.15;100980.75;5056088;28;65643;-39
2024/01/21 11:14:35;;;;;;;18.92;5.40;;;;;;;31.23;68.30;100987.63;5059595;28;71704;-40
2024/01/21 11:17:08;;;;;;;9.38;5.60;;;;;;;30.99;68.52;100944.06;5073823;28;65472;-39
2024/01/21 11:19:54;;;;;;;18.90;7.53;;;;;;;31.14;69.30;100973.53;5062867;28;69687;-42
2024/01/21 11:22:26;;;;;;;23.13;8.20;;;;;;;31.24;68.55;100990.13;5042514;28;66082;-39
2024/01/21 11:24:56;;;;;;;20.65;8.52;;;;;;;31.24;68.34;100992.03;5056423;28;69293;-39
2024/01/21 11:27:29;;;;;;;19.27;8.27;;;;;;;31.31;68.06;101000.91;5061452;28;66700;-42
2024/01/21 11:30:01;;;;;;;10.68;7.47;;;;;;;31.33;66.58;101006.97;5061200;28;69445;-41
2024/01/21 11:32:32;;;;;;;11.75;7.22;;;;;;;31.36;66.13;101004.66;5035448;28;66526;-40